Port O'Connor, TX (77982)

8:10 PM CDT on August 20, 2014 (GMT -0500)
BB Upholstery | Change Station
CLOSE
Current Station
Personal Weather Station
Location: Port O'Connor, TX
Elevation: 30 ft
Nearby Weather Stations

Elev 30 ft 28.44 °N, 96.43 °W | Updated 0 second ago

Scattered Clouds
Scattered Clouds
85.4 °F
Feels Like 99 °F
N
6.0
Wind Variable Wind from East
Gusts 14.0 mph

Today
High -- | Low -- °F
--% Chance of Precip.
Yesterday
High -- | Low -- °F
Precip. -- in
6:58 AM 8:00 PM
Waning Crescent, 18% visible
Pressure 29.95 in
Visibility 10.0 miles
Clouds Scattered Clouds 2200 ft
Scattered Clouds 3200 ft
Heat Index 99 °F
Dew Point 80 °F
Humidity 83%
Rainfall 0.00 in
Snow Depth Not available.
UV 0 out of 12
Pollen 6.40 out of 12
Air Quality Not available.
Flu Activity Not available.
METAR KPKV 210055Z AUTO 14012G18KT 10SM SCT022 SCT032 30/25 A2995 RMK AO2 T02950245

More Conditions Fewer Conditions

Pressure 29.95 in
Visibility 10.0 miles
Clouds Scattered Clouds 2200 ft
Scattered Clouds 3200 ft
Heat Index 99 °F
Dew Point 80 °F
Humidity 83%
Rainfall 0.00 in
Snow Depth Not available.
UV 0 out of 12
Pollen 6.40 out of 12
Air Quality Not available.
Flu Activity Not available.
METAR KPKV 210055Z AUTO 14012G18KT 10SM SCT022 SCT032 30/25 A2995 RMK AO2 T02950245

More Conditions Fewer Conditions

10-Day Weather Forecast

Almanac

Astronomy

Aug. 20, 2014 Rise Set
Actual Time 6:58 AM CDT 8:00 PM CDT
Civil Twilight 6:34 AM CDT 8:24 PM CDT
Nautical Twilight 6:05 AM CDT 8:53 PM CDT
Astronomical Twilight 5:35 AM CDT 9:23 PM CDT
Moon 2:48 AM CDT (8/20) 4:37 PM CDT (8/20)
Length of Visible Light 13h 50m
Length of Day
13h 01m
Tomorrow will be 1m 31s shorter.
Waning Crescent, 18% of the Moon is Illuminated
Today
Waning Crescent
Aug 25
New
Sep 2
First Quarter
Sep 8
Full
Sep 15
Last Quarter

Today's Extremes

State Highs State Lows

Community

WunderPhotos

Upload Photos

1,745,823 photos uploaded!

WunderBlogs® & News

Nearby

Air Quality

  Air Quality AQ Index Pollutant
Yesterday Good
OZONE
Wednesday Good
PM10
Wednesday Good
OZONE
Thursday Good
PM10
Thursday Good
OZONE
Friday Good
PM10
Friday Good
OZONE
Saturday Good
PM10
Saturday Good
OZONE

Snow Depth

Station Depth Elevation
No new snow has been reported.

Earthquake Activity

City Distance Mag. Time & Date
No recent earthquake activity has been reported nearby.
Minimum magnitude displayed is 2.5.

Coastal Water Temperatures

Place Temperature
Rockport, TX 88.0 °F
Seadrift, TX 88.0 °F
Port Aransas, TX 82.9 °F

Nearby Weather Stations